Time;durP1;ratioP1;P1;durP2;ratioP2;P2;SDS_P1;SDS_P2;PMS_P1;PMS_P2;Temp;Humidity;BMP_temperature;BMP_pressure;BME280_temperature;BME280_humidity;BME280_pressure;Samples;Min_cycle;Max_cycle;Signal;HPM_P1;HPM_P2
2022/07/31 00:00:25;;;;;;;5.00;0.80;;;;;;;;;;5035290;28;20053;-59
2022/07/31 00:02:56;;;;;;;4.50;1.00;;;;;;;;;;5034296;28;20057;-59
2022/07/31 00:05:26;;;;;;;2.40;1.00;;;;;;;;;;5034646;28;20067;-59
2022/07/31 00:07:56;;;;;;;2.65;0.95;;;;;;;;;;5035034;28;20168;-58
2022/07/31 00:10:26;;;;;;;3.25;0.90;;;;;;;;;;5035024;28;20057;-58
2022/07/31 00:12:53;;;;;;;2.28;1.00;;;;;;;;;;5034271;28;20669;-56
2022/07/31 00:15:34;;;;;;;3.00;1.00;;;;;;;;;;5035092;28;20079;-58
2022/07/31 00:18:04;;;;;;;2.65;0.85;;;;;;;;;;5034935;28;20057;-58
2022/07/31 00:20:34;;;;;;;2.00;0.90;;;;;;;;;;5034554;28;20136;-59
2022/07/31 00:23:04;;;;;;;2.47;0.93;;;;;;;;;;5034467;28;20072;-58
2022/07/31 00:25:34;;;;;;;5.47;1.13;;;;;;;;;;5034769;28;20111;-59
2022/07/31 00:28:02;;;;;;;2.85;1.02;;;;;;;;;;5034547;28;20124;-59
2022/07/31 00:30:32;;;;;;;2.30;1.20;;;;;;;;;;5034736;28;20045;-59
2022/07/31 00:32:59;;;;;;;5.30;1.10;;;;;;;;;;5034467;28;20664;-59
2022/07/31 00:35:26;;;;;;;4.20;1.25;;;;;;;;;;5034703;28;20057;-59
2022/07/31 00:37:57;;;;;;;2.75;0.90;;;;;;;;;;5034544;28;20057;-59
2022/07/31 00:40:27;;;;;;;3.90;1.10;;;;;;;;;;5034566;28;20065;-59
2022/07/31 00:42:57;;;;;;;4.35;0.80;;;;;;;;;;5034099;28;20050;-59
2022/07/31 00:45:25;;;;;;;3.78;1.10;;;;;;;;;;5034377;28;20144;-55
2022/07/31 00:47:52;;;;;;;2.25;0.70;;;;;;;;;;5034262;28;20057;-58
2022/07/31 00:50:22;;;;;;;3.33;0.95;;;;;;;;;;5034084;28;20085;-57
2022/07/31 00:52:50;;;;;;;2.75;0.80;;;;;;;;;;5033714;28;20085;-59
2022/07/31 00:55:21;;;;;;;2.83;0.80;;;;;;;;;;5032964;28;20386;-59
2022/07/31 00:57:51;;;;;;;3.92;1.00;;;;;;;;;;5033925;28;20049;-59
2022/07/31 01:00:22;;;;;;;3.35;1.00;;;;;;;;;;5034219;28;20049;-59
2022/07/31 01:02:50;;;;;;;12.13;0.93;;;;;;;;;;5033477;28;20053;-59
2022/07/31 01:05:25;;;;;;;5.05;0.95;;;;;;;;;;5033874;28;20060;-59
2022/07/31 01:07:55;;;;;;;4.30;1.17;;;;;;;;;;5033964;28;20053;-59
2022/07/31 01:10:32;;;;;;;2.38;0.80;;;;;;;;;;5033756;28;20053;-58
2022/07/31 01:13:10;;;;;;;3.75;1.13;;;;;;;;;;5033812;28;20057;-58
2022/07/31 01:15:46;;;;;;;3.10;1.00;;;;;;;;;;5033736;28;20045;-58
2022/07/31 01:18:16;;;;;;;4.82;1.20;;;;;;;;;;5033562;28;20057;-58
2022/07/31 01:21:01;;;;;;;4.60;1.15;;;;;;;;;;5033751;28;20132;-58
2022/07/31 01:23:42;;;;;;;6.72;1.50;;;;;;;;;;5033787;28;20128;-58
2022/07/31 01:26:17;;;;;;;6.00;1.30;;;;;;;;;;5013942;28;20477;-58
2022/07/31 01:29:00;;;;;;;2.55;1.05;;;;;;;;;;5013785;28;20485;-58
2022/07/31 01:31:34;;;;;;;1.90;0.80;;;;;;;;;;5013817;28;20053;-58
2022/07/31 01:34:12;;;;;;;4.47;1.20;;;;;;;;;;5013048;28;20104;-58
2022/07/31 01:36:42;;;;;;;3.80;0.88;;;;;;;;;;5031981;28;20056;-58
2022/07/31 01:39:10;;;;;;;6.95;1.10;;;;;;;;;;5033065;28;20045;-58
2022/07/31 01:41:46;;;;;;;2.97;0.90;;;;;;;;;;5033418;28;20068;-58
2022/07/31 01:44:17;;;;;;;2.25;0.93;;;;;;;;;;5033466;28;20107;-58
2022/07/31 01:46:46;;;;;;;6.40;1.10;;;;;;;;;;5033140;28;20128;-58
2022/07/31 01:49:15;;;;;;;4.90;1.00;;;;;;;;;;5033014;28;20045;-58
2022/07/31 01:51:44;;;;;;;4.90;0.80;;;;;;;;;;5039934;28;20059;-58
2022/07/31 01:54:14;;;;;;;2.67;0.90;;;;;;;;;;5053288;28;20087;-58
2022/07/31 01:56:44;;;;;;;3.95;1.00;;;;;;;;;;5052328;28;20064;-57
2022/07/31 01:59:16;;;;;;;2.25;0.90;;;;;;;;;;5034439;28;20073;-58
2022/07/31 02:01:51;;;;;;;5.88;1.17;;;;;;;;;;5032603;28;20053;-54
2022/07/31 02:04:27;;;;;;;1.38;0.90;;;;;;;;;;5039383;28;20459;-56
2022/07/31 02:06:57;;;;;;;2.13;1.08;;;;;;;;;;5039439;28;20124;-57
2022/07/31 02:09:27;;;;;;;2.78;0.90;;;;;;;;;;5039811;28;20060;-58
2022/07/31 02:11:57;;;;;;;4.20;1.05;;;;;;;;;;5039851;28;20049;-58
2022/07/31 02:14:27;;;;;;;6.68;1.05;;;;;;;;;;5039767;28;20057;-58
2022/07/31 02:17:02;;;;;;;2.55;0.90;;;;;;;;;;5039526;28;20068;-57
2022/07/31 02:19:33;;;;;;;3.25;1.10;;;;;;;;;;5039763;28;20061;-58
2022/07/31 02:21:59;;;;;;;2.17;1.08;;;;;;;;;;5039742;28;20057;-58
2022/07/31 02:24:29;;;;;;;3.88;1.10;;;;;;;;;;5039685;28;20053;-58
2022/07/31 02:26:59;;;;;;;2.92;1.00;;;;;;;;;;5039436;28;20063;-58
2022/07/31 02:29:28;;;;;;;5.55;1.40;;;;;;;;;;5039536;28;20053;-58
2022/07/31 02:32:01;;;;;;;3.88;1.42;;;;;;;;;;5039335;28;20053;-58
2022/07/31 02:34:30;;;;;;;4.78;1.60;;;;;;;;;;5038940;28;20126;-57
2022/07/31 02:36:57;;;;;;;4.22;1.25;;;;;;;;;;5038875;28;20542;-57
2022/07/31 02:39:34;;;;;;;2.78;1.42;;;;;;;;;;5038857;28;20418;-57
2022/07/31 02:42:01;;;;;;;2.13;1.20;;;;;;;;;;5038996;28;20065;-57
2022/07/31 02:44:31;;;;;;;3.50;1.10;;;;;;;;;;5038687;28;20064;-57
2022/07/31 02:47:07;;;;;;;4.15;1.13;;;;;;;;;;5038929;28;20045;-58
2022/07/31 02:49:36;;;;;;;5.22;1.35;;;;;;;;;;5039242;28;20049;-57
2022/07/31 02:52:04;;;;;;;4.95;1.50;;;;;;;;;;5038658;28;20595;-58
2022/07/31 02:54:34;;;;;;;8.35;1.73;;;;;;;;;;5038098;28;20080;-58
2022/07/31 02:57:04;;;;;;;3.85;1.13;;;;;;;;;;5038706;28;20053;-58
2022/07/31 02:59:34;;;;;;;3.97;1.00;;;;;;;;;;5038656;28;20574;-58
2022/07/31 03:02:15;;;;;;;2.00;1.10;;;;;;;;;;5038109;28;20061;-58
2022/07/31 03:04:41;;;;;;;4.50;1.35;;;;;;;;;;5039139;28;20054;-58
2022/07/31 03:07:18;;;;;;;3.83;1.05;;;;;;;;;;5038320;28;20075;-58
2022/07/31 03:09:56;;;;;;;3.40;1.40;;;;;;;;;;5039356;28;20371;-56
2022/07/31 03:12:26;;;;;;;5.25;1.10;;;;;;;;;;5038806;28;20112;-58
2022/07/31 03:14:56;;;;;;;4.40;1.10;;;;;;;;;;5035808;28;20053;-58
2022/07/31 03:17:40;;;;;;;5.28;1.15;;;;;;;;;;5035562;28;20068;-58
2022/07/31 03:20:11;;;;;;;3.20;0.98;;;;;;;;;;5035956;28;20045;-58
2022/07/31 03:22:42;;;;;;;2.58;1.08;;;;;;;;;;5036072;28;20141;-58
2022/07/31 03:25:12;;;;;;;6.05;1.50;;;;;;;;;;5036244;28;20053;-58
2022/07/31 03:27:42;;;;;;;3.35;1.60;;;;;;;;;;5035928;28;20061;-58
2022/07/31 03:30:17;;;;;;;2.25;1.10;;;;;;;;;;5035887;28;20060;-58
2022/07/31 03:32:46;;;;;;;4.88;1.30;;;;;;;;;;5035485;28;20510;-58
2022/07/31 03:35:16;;;;;;;4.57;1.38;;;;;;;;;;5034708;28;20369;-58
2022/07/31 03:37:47;;;;;;;2.42;1.00;;;;;;;;;;5035558;28;20049;-57
2022/07/31 03:40:16;;;;;;;4.00;0.90;;;;;;;;;;5035780;28;20148;-57
2022/07/31 03:42:46;;;;;;;4.57;1.08;;;;;;;;;;5035697;28;20103;-57
2022/07/31 03:45:15;;;;;;;3.63;1.08;;;;;;;;;;5035542;28;20045;-58
2022/07/31 03:47:44;;;;;;;3.75;1.00;;;;;;;;;;5035620;28;20115;-58
2022/07/31 03:50:17;;;;;;;2.95;1.10;;;;;;;;;;5035186;28;20057;-58
2022/07/31 03:52:47;;;;;;;3.30;1.00;;;;;;;;;;5035561;28;20045;-58
2022/07/31 03:55:17;;;;;;;3.63;1.27;;;;;;;;;;5034025;28;20045;-58
2022/07/31 03:57:48;;;;;;;3.60;0.98;;;;;;;;;;5035068;28;20056;-58
2022/07/31 04:00:16;;;;;;;4.25;1.25;;;;;;;;;;5035328;28;20077;-58
2022/07/31 04:02:47;;;;;;;5.32;1.10;;;;;;;;;;5034509;28;20049;-58
2022/07/31 04:05:28;;;;;;;2.72;0.98;;;;;;;;;;5034884;28;20127;-58
2022/07/31 04:07:55;;;;;;;3.10;1.20;;;;;;;;;;5035296;28;20053;-58
2022/07/31 04:10:22;;;;;;;2.10;1.05;;;;;;;;;;5035208;28;20061;-57
2022/07/31 04:12:52;;;;;;;3.47;1.38;;;;;;;;;;5034976;28;20401;-58
2022/07/31 04:15:19;;;;;;;3.30;1.02;;;;;;;;;;5035119;28;20049;-58
2022/07/31 04:17:46;;;;;;;4.03;1.00;;;;;;;;;;5034265;28;20076;-58
2022/07/31 04:20:15;;;;;;;3.83;1.10;;;;;;;;;;5034784;28;20060;-58
2022/07/31 04:22:57;;;;;;;5.35;1.63;;;;;;;;;;5034997;28;20141;-58
2022/07/31 04:25:27;;;;;;;6.38;1.05;;;;;;;;;;5034349;28;20057;-58
2022/07/31 04:27:55;;;;;;;2.28;1.20;;;;;;;;;;5034172;28;20045;-58
2022/07/31 04:30:25;;;;;;;2.85;1.17;;;;;;;;;;5034533;28;20481;-58
2022/07/31 04:32:52;;;;;;;7.97;1.23;;;;;;;;;;5034749;28;20136;-58
2022/07/31 04:35:20;;;;;;;2.47;1.10;;;;;;;;;;5034498;28;20041;-57
2022/07/31 04:37:53;;;;;;;3.00;1.10;;;;;;;;;;5034634;28;20057;-58
2022/07/31 04:40:21;;;;;;;4.30;1.23;;;;;;;;;;5034753;28;20053;-58
2022/07/31 04:42:52;;;;;;;2.88;1.05;;;;;;;;;;5034474;28;20042;-58
2022/07/31 04:45:19;;;;;;;4.43;1.15;;;;;;;;;;5034358;28;20053;-58
2022/07/31 04:47:48;;;;;;;3.75;1.02;;;;;;;;;;5034274;28;20049;-58
2022/07/31 04:50:15;;;;;;;4.28;1.27;;;;;;;;;;5033574;28;20467;-58
2022/07/31 04:52:45;;;;;;;3.45;1.10;;;;;;;;;;5032865;28;20060;-58
2022/07/31 04:55:15;;;;;;;1.90;1.00;;;;;;;;;;5034335;28;20064;-55
2022/07/31 04:57:45;;;;;;;3.95;1.15;;;;;;;;;;5033935;28;20061;-56
2022/07/31 05:00:26;;;;;;;16.17;1.40;;;;;;;;;;5033570;28;20061;-57
2022/07/31 05:02:56;;;;;;;3.97;1.20;;;;;;;;;;5033479;28;20061;-56
2022/07/31 05:05:22;;;;;;;5.32;1.60;;;;;;;;;;5033834;28;20443;-55
2022/07/31 05:07:50;;;;;;;3.17;1.10;;;;;;;;;;5034174;28;20049;-57
2022/07/31 05:13:04;;;;;;;4.28;0.90;;;;;;;;;;5033784;28;20068;-57
2022/07/31 05:15:34;;;;;;;4.13;1.10;;;;;;;;;;5033952;28;20060;-59
2022/07/31 05:18:06;;;;;;;3.58;1.20;;;;;;;;;;5033907;28;20057;-59
2022/07/31 05:20:35;;;;;;;3.78;1.40;;;;;;;;;;5033361;28;20533;-59
2022/07/31 05:23:11;;;;;;;3.10;1.10;;;;;;;;;;5033889;28;20053;-59
2022/07/31 05:25:40;;;;;;;4.43;1.20;;;;;;;;;;5033826;28;20049;-59
2022/07/31 05:28:10;;;;;;;2.88;1.25;;;;;;;;;;5033656;28;20067;-59
2022/07/31 05:30:37;;;;;;;4.90;1.20;;;;;;;;;;5033660;28;20049;-58
2022/07/31 05:33:07;;;;;;;3.45;1.50;;;;;;;;;;5033612;28;20045;-57
2022/07/31 05:35:36;;;;;;;2.35;1.08;;;;;;;;;;5033387;28;20475;-58
2022/07/31 05:38:06;;;;;;;3.67;1.23;;;;;;;;;;5032622;28;20489;-58
2022/07/31 05:40:36;;;;;;;5.63;1.20;;;;;;;;;;5033323;28;20574;-58
2022/07/31 05:43:05;;;;;;;3.15;1.13;;;;;;;;;;5033211;28;20091;-59
2022/07/31 05:45:33;;;;;;;1.30;0.77;;;;;;;;;;5033534;28;20061;-58
2022/07/31 05:48:02;;;;;;;2.83;0.80;;;;;;;;;;5033479;28;20046;-58
2022/07/31 05:50:32;;;;;;;2.80;1.02;;;;;;;;;;5032972;28;20057;-59
2022/07/31 05:53:03;;;;;;;1.73;0.80;;;;;;;;;;5033224;28;20381;-58
2022/07/31 05:55:31;;;;;;;1.60;0.80;;;;;;;;;;5033150;28;20132;-58
2022/07/31 05:57:59;;;;;;;2.63;0.90;;;;;;;;;;5032082;28;20081;-58
2022/07/31 06:00:32;;;;;;;1.95;0.98;;;;;;;;;;5032068;28;20084;-58
2022/07/31 06:03:00;;;;;;;3.38;1.02;;;;;;;;;;5032366;28;20347;-56
2022/07/31 06:05:27;;;;;;;4.10;1.20;;;;;;;;;;5032885;28;20060;-58
2022/07/31 06:07:54;;;;;;;5.38;1.48;;;;;;;;;;5032768;28;20576;-58
2022/07/31 06:10:23;;;;;;;2.42;1.00;;;;;;;;;;5032913;28;20104;-58
2022/07/31 06:12:53;;;;;;;3.63;1.20;;;;;;;;;;5032972;28;20378;-58
2022/07/31 06:15:21;;;;;;;2.53;1.38;;;;;;;;;;5033096;28;20139;-58
2022/07/31 06:17:54;;;;;;;2.45;1.30;;;;;;;;;;5032893;28;20046;-58
2022/07/31 06:20:21;;;;;;;3.83;0.98;;;;;;;;;;5032461;28;20500;-58
2022/07/31 06:22:49;;;;;;;3.13;1.00;;;;;;;;;;5032092;28;20054;-58
2022/07/31 06:25:18;;;;;;;3.70;0.90;;;;;;;;;;5032875;28;20053;-58
2022/07/31 06:27:46;;;;;;;2.10;1.20;;;;;;;;;;5032780;28;20060;-57
2022/07/31 06:30:16;;;;;;;1.55;0.80;;;;;;;;;;5032542;28;20156;-58
2022/07/31 06:32:46;;;;;;;1.65;0.70;;;;;;;;;;5032478;28;20053;-58
2022/07/31 06:35:21;;;;;;;2.10;0.75;;;;;;;;;;5032385;28;20046;-56
2022/07/31 06:37:49;;;;;;;1.77;0.63;;;;;;;;;;5032263;28;20107;-57
2022/07/31 06:40:19;;;;;;;3.08;0.70;;;;;;;;;;5032792;28;20060;-58
2022/07/31 06:42:49;;;;;;;3.85;0.88;;;;;;;;;;5032844;28;20054;-56
2022/07/31 06:45:27;;;;;;;2.83;0.90;;;;;;;;;;5032371;28;20046;-58
2022/07/31 06:50:38;;;;;;;4.43;0.60;;;;;;;;;;5034707;28;20053;-58
2022/07/31 06:53:06;;;;;;;1.77;0.70;;;;;;;;;;5036057;28;20053;-57
2022/07/31 06:55:35;;;;;;;5.10;0.80;;;;;;;;;;5036251;28;20085;-58
2022/07/31 06:58:05;;;;;;;3.03;0.80;;;;;;;;;;5036091;28;20053;-58
2022/07/31 07:03:16;;;;;;;1.77;0.90;;;;;;;;;;5016548;28;20062;-58
2022/07/31 07:05:54;;;;;;;3.40;0.80;;;;;;;;;;5027128;28;20060;-58
2022/07/31 07:08:30;;;;;;;4.55;0.85;;;;;;;;;;5035699;28;20769;-58
2022/07/31 07:10:58;;;;;;;2.28;0.70;;;;;;;;;;5036172;28;20064;-59
2022/07/31 07:13:25;;;;;;;1.83;0.65;;;;;;;;;;5030980;28;20050;-57
2022/07/31 07:15:53;;;;;;;19.02;1.88;;;;;;;;;;5031275;28;20100;-58
2022/07/31 07:18:23;;;;;;;4.85;0.90;;;;;;;;;;5035638;28;20058;-57
2022/07/31 07:21:00;;;;;;;2.30;1.30;;;;;;;;;;5036100;28;20056;-58
2022/07/31 07:23:27;;;;;;;2.47;0.57;;;;;;;;;;5029693;28;20443;-57
2022/07/31 07:25:55;;;;;;;2.28;0.80;;;;;;;;;;5035737;28;20417;-56
2022/07/31 07:31:09;;;;;;;1.08;0.60;;;;;;;;;;5034953;28;20071;-57
2022/07/31 07:33:40;;;;;;;3.13;0.85;;;;;;;;;;5035653;28;20045;-57
2022/07/31 07:36:22;;;;;;;5.28;0.90;;;;;;;;;;5036157;28;20084;-56
2022/07/31 07:38:52;;;;;;;3.55;0.68;;;;;;;;;;5035576;28;20469;-57
2022/07/31 07:41:20;;;;;;;1.50;0.68;;;;;;;;;;5035933;28;20057;-57
2022/07/31 07:43:47;;;;;;;1.00;0.60;;;;;;;;;;5022370;28;20046;-57
2022/07/31 07:46:23;;;;;;;1.23;0.77;;;;;;;;;;5015868;28;20057;-56
2022/07/31 07:48:51;;;;;;;1.45;0.63;;;;;;;;;;5015750;28;20050;-57
2022/07/31 07:51:27;;;;;;;2.53;0.70;;;;;;;;;;5015838;28;20050;-57
2022/07/31 07:54:03;;;;;;;2.42;0.70;;;;;;;;;;5015593;28;20050;-58
2022/07/31 07:56:33;;;;;;;2.05;0.55;;;;;;;;;;5015232;28;20447;-57
2022/07/31 07:59:01;;;;;;;1.65;0.70;;;;;;;;;;5032325;28;20084;-57
2022/07/31 08:01:31;;;;;;;3.25;0.70;;;;;;;;;;5034616;28;20061;-58
2022/07/31 08:04:00;;;;;;;0.80;0.40;;;;;;;;;;5035197;28;20153;-58
2022/07/31 08:06:38;;;;;;;14.35;1.45;;;;;;;;;;5034831;28;20057;-57
2022/07/31 08:09:08;;;;;;;4.40;0.70;;;;;;;;;;5035232;28;20089;-58
2022/07/31 08:11:37;;;;;;;2.38;0.70;;;;;;;;;;5035187;28;20128;-58
2022/07/31 08:14:07;;;;;;;2.42;0.50;;;;;;;;;;5035514;28;20074;-58
2022/07/31 08:16:37;;;;;;;11.57;1.23;;;;;;;;;;5034774;28;20058;-58
2022/07/31 08:19:03;;;;;;;2.10;0.40;;;;;;;;;;5031384;28;20050;-58
2022/07/31 08:21:33;;;;;;;4.05;1.02;;;;;;;;;;5027913;28;20054;-58
2022/07/31 08:24:04;;;;;;;3.67;0.77;;;;;;;;;;5027184;28;20045;-58
2022/07/31 08:27:22;;;;;;;2.05;0.60;;;;;;;;;;5031708;28;20466;-58
2022/07/31 08:29:31;;;;;;;1.25;0.60;;;;;;;;;;5034519;28;20600;-58
2022/07/31 08:31:59;;;;;;;1.73;0.77;;;;;;;;;;5034662;28;20049;-58
2022/07/31 08:34:26;;;;;;;7.82;1.10;;;;;;;;;;5034069;28;20056;-58
2022/07/31 08:37:10;;;;;;;1.88;0.70;;;;;;;;;;5034626;28;20104;-58
2022/07/31 08:39:40;;;;;;;2.13;0.68;;;;;;;;;;5033760;28;20438;-58
2022/07/31 08:42:08;;;;;;;1.10;0.50;;;;;;;;;;5034500;28;20049;-58
2022/07/31 08:44:36;;;;;;;1.45;0.65;;;;;;;;;;5034000;28;20465;-58
2022/07/31 08:47:06;;;;;;;5.82;0.90;;;;;;;;;;5034286;28;20041;-58
2022/07/31 08:49:37;;;;;;;1.30;0.60;;;;;;;;;;5033894;28;20565;-56
2022/07/31 08:52:18;;;;;;;2.72;0.80;;;;;;;;;;5034634;28;20055;-54
2022/07/31 08:54:55;;;;;;;2.55;0.75;;;;;;;;;;5034060;28;20064;-57
2022/07/31 08:57:25;;;;;;;2.60;0.50;;;;;;;;;;5034162;28;20045;-58
2022/07/31 08:59:56;;;;;;;2.22;0.70;;;;;;;;;;5033833;28;20049;-58
2022/07/31 09:02:26;;;;;;;3.10;0.60;;;;;;;;;;5033436;28;20067;-57
2022/07/31 09:04:56;;;;;;;1.52;0.50;;;;;;;;;;5033938;28;20081;-57
2022/07/31 09:07:39;;;;;;;2.58;0.60;;;;;;;;;;5034011;28;20053;-58
2022/07/31 09:10:15;;;;;;;1.85;0.60;;;;;;;;;;5016823;28;20085;-58
2022/07/31 09:12:45;;;;;;;2.70;0.70;;;;;;;;;;5013299;28;20053;-58
2022/07/31 09:15:22;;;;;;;3.03;0.57;;;;;;;;;;5017898;28;20049;-58
2022/07/31 09:17:53;;;;;;;1.77;0.70;;;;;;;;;;5024610;28;20184;-58
2022/07/31 09:20:24;;;;;;;2.95;0.80;;;;;;;;;;5026507;28;20382;-56
2022/07/31 09:23:07;;;;;;;2.97;0.75;;;;;;;;;;5024627;28;20140;-58
2022/07/31 09:25:38;;;;;;;6.65;0.90;;;;;;;;;;5028692;28;20045;-57
2022/07/31 09:28:06;;;;;;;1.42;0.60;;;;;;;;;;5026868;28;20060;-58
2022/07/31 09:30:36;;;;;;;2.00;0.75;;;;;;;;;;5033085;28;20056;-58
2022/07/31 09:33:13;;;;;;;0.98;0.50;;;;;;;;;;5033248;28;20054;-57
2022/07/31 09:35:49;;;;;;;1.65;0.60;;;;;;;;;;5033000;28;20046;-57
2022/07/31 09:38:15;;;;;;;;;;;;;;;;;;5033459;28;20053;-58
2022/07/31 09:40:48;;;;;;;1.42;0.45;;;;;;;;;;5032729;28;20282;-58
2022/07/31 09:43:23;;;;;;;0.90;0.52;;;;;;;;;;5033230;28;20068;-57
2022/07/31 09:45:59;;;;;;;2.00;0.68;;;;;;;;;;5033382;28;20128;-57
2022/07/31 09:48:30;;;;;;;2.05;0.70;;;;;;;;;;5033318;28;20050;-57
2022/07/31 09:50:59;;;;;;;1.00;0.47;;;;;;;;;;5032691;28;20414;-57
2022/07/31 09:53:29;;;;;;;4.35;1.10;;;;;;;;;;5030624;28;20466;-57
2022/07/31 09:56:06;;;;;;;1.17;0.70;;;;;;;;;;5032427;28;20381;-57
2022/07/31 09:58:36;;;;;;;1.20;0.57;;;;;;;;;;5030702;28;20068;-57
2022/07/31 10:01:03;;;;;;;1.42;0.60;;;;;;;;;;5032180;28;20529;-57
2022/07/31 10:03:35;;;;;;;3.10;0.85;;;;;;;;;;5032513;28;20470;-56
2022/07/31 10:06:03;;;;;;;1.50;0.60;;;;;;;;;;5032544;28;20099;-58
2022/07/31 10:08:34;;;;;;;3.15;0.70;;;;;;;;;;5032086;28;20061;-58
2022/07/31 10:11:06;;;;;;;1.63;0.65;;;;;;;;;;5032062;28;20363;-58
2022/07/31 10:13:38;;;;;;;3.70;0.60;;;;;;;;;;5031273;28;20052;-58
2022/07/31 10:16:09;;;;;;;1.65;0.63;;;;;;;;;;5032109;28;20045;-58
2022/07/31 10:18:38;;;;;;;2.75;0.73;;;;;;;;;;5032504;28;20058;-58
2022/07/31 10:21:10;;;;;;;1.23;0.63;;;;;;;;;;5032320;28;20057;-58
2022/07/31 10:23:44;;;;;;;2.60;0.70;;;;;;;;;;5017197;28;20076;-58
2022/07/31 10:26:27;;;;;;;1.40;0.60;;;;;;;;;;5036761;28;20076;-58
2022/07/31 10:29:03;;;;;;;1.65;0.60;;;;;;;;;;5036756;28;20099;-58
2022/07/31 10:31:33;;;;;;;2.35;0.52;;;;;;;;;;5036330;28;20053;-58
2022/07/31 10:34:10;;;;;;;1.40;0.50;;;;;;;;;;5036629;28;20073;-58
2022/07/31 10:36:41;;;;;;;7.20;0.90;;;;;;;;;;5036300;28;20063;-58
2022/07/31 10:39:09;;;;;;;0.80;0.50;;;;;;;;;;5035894;28;20526;-57
2022/07/31 10:41:47;;;;;;;1.00;0.50;;;;;;;;;;5037306;28;20068;-58
2022/07/31 10:44:24;;;;;;;2.80;0.80;;;;;;;;;;5036055;28;20462;-58
2022/07/31 10:46:52;;;;;;;1.23;0.73;;;;;;;;;;5048389;28;20527;-58
2022/07/31 10:49:22;;;;;;;1.77;0.50;;;;;;;;;;5038442;28;20049;-58
2022/07/31 10:51:52;;;;;;;1.92;0.60;;;;;;;;;;5036042;28;20114;-57
2022/07/31 10:54:21;;;;;;;1.52;0.73;;;;;;;;;;5036152;28;20060;-58
2022/07/31 10:56:57;;;;;;;3.05;0.80;;;;;;;;;;5037252;28;20049;-58
2022/07/31 10:59:30;;;;;;;2.25;0.70;;;;;;;;;;5033907;28;20053;-58
2022/07/31 11:02:00;;;;;;;1.15;0.57;;;;;;;;;;5035504;28;20091;-57
2022/07/31 11:04:29;;;;;;;2.13;0.80;;;;;;;;;;5035882;28;20049;-58
2022/07/31 11:06:57;;;;;;;1.58;0.57;;;;;;;;;;5036035;28;20064;-58
2022/07/31 11:09:24;;;;;;;1.30;0.68;;;;;;;;;;5035391;28;20466;-58
2022/07/31 11:11:55;;;;;;;2.63;0.50;;;;;;;;;;5034742;28;20042;-58
2022/07/31 11:14:37;;;;;;;2.40;0.68;;;;;;;;;;5029874;28;20136;-58
2022/07/31 11:17:04;;;;;;;1.17;0.50;;;;;;;;;;5035628;28;20052;-58
2022/07/31 11:19:37;;;;;;;2.78;0.65;;;;;;;;;;5034653;28;20422;-58
2022/07/31 11:22:11;;;;;;;2.85;0.80;;;;;;;;;;5032292;28;20054;-58
2022/07/31 11:24:39;;;;;;;1.10;0.40;;;;;;;;;;5035309;28;20061;-58
2022/07/31 11:27:08;;;;;;;1.08;0.60;;;;;;;;;;5035602;28;20057;-58
2022/07/31 11:29:37;;;;;;;1.63;0.85;;;;;;;;;;5035226;28;20056;-58
2022/07/31 11:32:18;;;;;;;1.70;0.63;;;;;;;;;;5035729;28;20059;-58
2022/07/31 11:34:47;;;;;;;1.73;0.60;;;;;;;;;;5035578;28;20049;-57
2022/07/31 11:37:19;;;;;;;2.42;0.65;;;;;;;;;;5035320;28;20060;-58
2022/07/31 11:39:48;;;;;;;1.55;0.60;;;;;;;;;;5035860;28;20115;-55
2022/07/31 11:42:17;;;;;;;1.70;0.75;;;;;;;;;;5038274;28;20046;-56
2022/07/31 11:44:46;;;;;;;1.27;0.60;;;;;;;;;;5037195;28;20088;-57
2022/07/31 11:47:13;;;;;;;1.23;0.60;;;;;;;;;;5035142;28;20049;-57
2022/07/31 11:49:43;;;;;;;1.30;0.70;;;;;;;;;;5035632;28;20119;-57
2022/07/31 11:52:11;;;;;;;1.98;0.65;;;;;;;;;;5035997;28;20045;-58
2022/07/31 11:54:40;;;;;;;2.65;0.80;;;;;;;;;;5035511;28;20057;-58
2022/07/31 11:57:10;;;;;;;2.83;0.82;;;;;;;;;;5031021;28;20607;-58
2022/07/31 11:59:45;;;;;;;2.33;1.20;;;;;;;;;;5029262;28;20057;-58
2022/07/31 12:02:12;;;;;;;1.25;0.70;;;;;;;;;;5033761;28;20049;-57
2022/07/31 12:04:39;;;;;;;1.10;0.50;;;;;;;;;;5037817;28;20049;-57
2022/07/31 12:07:09;;;;;;;1.10;0.60;;;;;;;;;;5036367;28;20049;-57
2022/07/31 12:09:36;;;;;;;2.42;0.75;;;;;;;;;;5034946;28;20053;-58
2022/07/31 12:12:06;;;;;;;2.42;0.80;;;;;;;;;;5034728;28;20049;-57
2022/07/31 12:14:36;;;;;;;1.23;0.70;;;;;;;;;;5034586;28;20140;-58
2022/07/31 12:17:23;;;;;;;1.95;0.70;;;;;;;;;;5035007;28;20050;-59
2022/07/31 12:19:49;;;;;;;1.05;0.60;;;;;;;;;;5034725;28;20045;-59
2022/07/31 12:22:20;;;;;;;3.50;0.60;;;;;;;;;;5035049;28;20071;-58
2022/07/31 12:25:01;;;;;;;6.35;0.80;;;;;;;;;;5039507;28;20075;-57
2022/07/31 12:27:29;;;;;;;0.85;0.65;;;;;;;;;;5025921;28;20431;-56
2022/07/31 12:29:57;;;;;;;1.00;0.50;;;;;;;;;;5034538;28;20057;-55
2022/07/31 12:32:26;;;;;;;0.65;0.40;;;;;;;;;;5034477;28;20053;-54
2022/07/31 12:35:06;;;;;;;2.22;0.80;;;;;;;;;;5034518;28;20081;-57
2022/07/31 12:37:42;;;;;;;1.58;0.50;;;;;;;;;;5027591;28;20063;-57
2022/07/31 12:40:21;;;;;;;3.15;0.65;;;;;;;;;;5033011;28;20050;-58
2022/07/31 12:42:50;;;;;;;3.10;0.60;;;;;;;;;;5034178;28;20049;-57
2022/07/31 12:45:17;;;;;;;2.67;0.80;;;;;;;;;;5034507;28;20112;-58
2022/07/31 12:47:47;;;;;;;0.88;0.50;;;;;;;;;;5033549;28;20049;-57
2022/07/31 12:50:15;;;;;;;1.17;0.60;;;;;;;;;;5034539;28;20064;-58
2022/07/31 12:52:45;;;;;;;1.13;0.70;;;;;;;;;;5034316;28;20525;-59
2022/07/31 12:55:13;;;;;;;4.68;0.80;;;;;;;;;;5034444;28;20065;-58
2022/07/31 12:57:41;;;;;;;1.98;0.90;;;;;;;;;;5033420;28;20132;-57
2022/07/31 13:00:14;;;;;;;1.42;0.70;;;;;;;;;;5033998;28;20053;-58
2022/07/31 13:02:44;;;;;;;1.42;0.50;;;;;;;;;;5047021;28;20449;-58
2022/07/31 13:05:16;;;;;;;1.73;0.70;;;;;;;;;;5033407;28;20053;-58
2022/07/31 13:07:43;;;;;;;8.30;0.88;;;;;;;;;;5034241;28;20163;-58
2022/07/31 13:10:11;;;;;;;1.40;0.68;;;;;;;;;;5034027;28;20053;-58
2022/07/31 13:12:39;;;;;;;2.55;0.63;;;;;;;;;;5033461;28;20132;-58
2022/07/31 13:15:07;;;;;;;2.00;0.47;;;;;;;;;;5032882;28;20071;-58
2022/07/31 13:17:36;;;;;;;3.70;0.80;;;;;;;;;;5033350;28;20045;-58
2022/07/31 13:20:02;;;;;;;6.47;0.95;;;;;;;;;;5033950;28;20049;-57
2022/07/31 13:22:33;;;;;;;2.83;0.65;;;;;;;;;;5033360;28;20050;-58
2022/07/31 13:25:01;;;;;;;21.70;1.88;;;;;;;;;;5033572;28;20072;-58
2022/07/31 13:27:32;;;;;;;94.50;8.75;;;;;;;;;;5033378;28;20037;-58
2022/07/31 13:30:02;;;;;;;23.30;2.30;;;;;;;;;;5032532;28;20045;-58
2022/07/31 13:32:28;;;;;;;1.80;0.55;;;;;;;;;;5033791;28;20060;-58
2022/07/31 13:34:55;;;;;;;1.58;0.57;;;;;;;;;;5033707;28;20064;-58
2022/07/31 13:37:22;;;;;;;2.33;0.50;;;;;;;;;;5033842;28;20046;-57
2022/07/31 13:39:53;;;;;;;1.42;0.70;;;;;;;;;;5032958;28;20049;-58
2022/07/31 13:42:20;;;;;;;5.97;0.80;;;;;;;;;;5033234;28;20072;-58
2022/07/31 13:44:49;;;;;;;3.05;0.70;;;;;;;;;;5033506;28;20076;-57
2022/07/31 13:47:15;;;;;;;3.45;0.70;;;;;;;;;;5032860;28;20107;-58
2022/07/31 13:49:43;;;;;;;1.13;0.60;;;;;;;;;;5033482;28;20053;-58
2022/07/31 13:52:09;;;;;;;6.70;0.80;;;;;;;;;;5033569;28;20061;-57
2022/07/31 13:54:36;;;;;;;1.58;0.60;;;;;;;;;;5033318;28;20093;-58
2022/07/31 13:57:06;;;;;;;44.30;3.85;;;;;;;;;;5031242;28;20058;-57
2022/07/31 13:59:33;;;;;;;2.05;0.70;;;;;;;;;;5031026;28;20379;-56
2022/07/31 14:02:01;;;;;;;2.50;0.70;;;;;;;;;;5032213;28;20138;-58
2022/07/31 14:04:29;;;;;;;4.22;0.73;;;;;;;;;;5031879;28;20053;-58
2022/07/31 14:06:56;;;;;;;1.58;0.68;;;;;;;;;;5024795;28;20382;-58
2022/07/31 14:09:26;;;;;;;4.47;0.60;;;;;;;;;;5031995;28;20057;-58
2022/07/31 14:11:52;;;;;;;1.55;0.70;;;;;;;;;;5030549;28;20054;-57
2022/07/31 14:14:34;;;;;;;3.80;0.80;;;;;;;;;;5022092;28;20077;-58
2022/07/31 14:17:02;;;;;;;3.08;0.80;;;;;;;;;;5026076;28;20478;-58
2022/07/31 14:19:29;;;;;;;3.40;0.90;;;;;;;;;;5033078;28;20060;-58
2022/07/31 14:21:58;;;;;;;3.08;1.02;;;;;;;;;;5027232;28;20049;-56
2022/07/31 14:24:25;;;;;;;2.30;0.43;;;;;;;;;;5022267;28;20049;-57
2022/07/31 14:26:53;;;;;;;2.28;0.70;;;;;;;;;;5033043;28;20379;-57
2022/07/31 14:29:23;;;;;;;2.08;0.70;;;;;;;;;;5026366;28;20050;-57
2022/07/31 14:31:49;;;;;;;2.78;0.50;;;;;;;;;;5029255;28;20049;-58
2022/07/31 14:34:18;;;;;;;1.10;0.57;;;;;;;;;;5026001;28;20056;-56
2022/07/31 14:36:45;;;;;;;3.25;0.40;;;;;;;;;;5033100;28;20053;-56
2022/07/31 14:39:14;;;;;;;1.55;0.50;;;;;;;;;;5032921;28;20173;-56
2022/07/31 14:41:40;;;;;;;4.45;0.85;;;;;;;;;;5023995;28;20497;-58
2022/07/31 14:44:10;;;;;;;2.20;0.50;;;;;;;;;;5026327;28;20049;-58
2022/07/31 14:46:40;;;;;;;1.08;0.40;;;;;;;;;;5026623;28;20127;-56
2022/07/31 14:49:09;;;;;;;1.60;0.60;;;;;;;;;;5032885;28;20045;-57
2022/07/31 14:51:35;;;;;;;3.83;0.60;;;;;;;;;;5032292;28;20542;-56
2022/07/31 14:54:04;;;;;;;2.05;0.60;;;;;;;;;;5032751;28;20524;-57
2022/07/31 14:56:31;;;;;;;1.92;0.52;;;;;;;;;;5032233;28;20080;-56
2022/07/31 14:58:59;;;;;;;2.53;0.70;;;;;;;;;;5032969;28;20053;-56
2022/07/31 15:01:28;;;;;;;2.10;0.60;;;;;;;;;;5032390;28;20096;-58
2022/07/31 15:03:57;;;;;;;1.70;0.50;;;;;;;;;;5032935;28;20057;-58
2022/07/31 15:06:25;;;;;;;1.98;0.60;;;;;;;;;;5032263;28;20375;-57
2022/07/31 15:08:52;;;;;;;4.13;0.60;;;;;;;;;;5032915;28;20084;-58
2022/07/31 15:11:18;;;;;;;1.23;0.57;;;;;;;;;;5031342;28;20060;-58
2022/07/31 15:13:46;;;;;;;1.83;0.50;;;;;;;;;;5035633;28;20060;-58